KGXF

Gila Bend Af Aux Airport

Gila Bend, Arizona, USA
METAR KGXF 220358Z AUTO 29004KT 10SM CLR 11/M04 A2990 RMK AO2 SLP121 T01081040
Observed Flight Rules
Jan-22 @ 03:58 UTC (17 minutes ago) Visual Flight Rules
Wind Visibility Clouds
290° at 4 knots 10 miles
  • Clear skies
Temperatures Readings
Current 11°C / 52°F
Dewpoint -4°C / 25°F
Humidity 35%
Altimeter 29.9" Hg
Pressure 1012.1 hPa
Elevation 262
METAR KGXF 220358Z AUTO 29004KT 10SM CLR 11/M04 A2990 RMK AO2 SLP121 T01081040
Observed Flight Rules
Jan-22 @ 03:58 UTC
(17 minutes ago)
VFR
Wind Visibility
290° at 4 knots 10 miles
Clouds
  • Clear skies
Temperature Dewpoint
11°C / 52°F -4°C / 25°F
Humidity Altimeter Pressure
35% 29.9" Hg 1012.1 hPa